Time;durP1;ratioP1;P1;durP2;ratioP2;P2;SDS_P1;SDS_P2;PMS_P1;PMS_P2;Temp;Humidity;BMP_temperature;BMP_pressure;BME280_temperature;BME280_humidity;BME280_pressure;Samples;Min_cycle;Max_cycle;Signal;HPM_P1;HPM_P2
2021/06/11 00:00:17;;;;;;;7.83;5.97;;;14.40;99.90;;;;;;4948589;29;20210;-79
2021/06/11 00:02:43;;;;;;;6.30;5.50;;;14.40;99.90;;;;;;4947919;29;20267;-79
2021/06/11 00:05:10;;;;;;;6.00;5.50;;;14.40;99.90;;;;;;4966136;29;20187;-78
2021/06/11 00:07:36;;;;;;;12.00;6.07;;;14.40;99.90;;;;;;4966336;29;20203;-79
2021/06/11 00:10:12;;;;;;;6.33;5.57;;;14.40;99.90;;;;;;4975736;29;20181;-79
2021/06/11 00:12:38;;;;;;;7.60;5.53;;;14.40;99.90;;;;;;4973306;29;20511;-79
2021/06/11 00:15:06;;;;;;;5.83;5.13;;;14.40;99.90;;;;;;4964467;29;20169;-79
2021/06/11 00:17:32;;;;;;;6.70;5.33;;;14.40;99.90;;;;;;4964712;29;20201;-79
2021/06/11 00:19:58;;;;;;;8.33;5.20;;;14.30;99.90;;;;;;4964122;29;20173;-79
2021/06/11 00:22:23;;;;;;;5.80;4.97;;;14.20;99.90;;;;;;4964853;29;20232;-79
2021/06/11 00:24:49;;;;;;;5.50;4.90;;;14.20;99.90;;;;;;4964581;29;20650;-79
2021/06/11 00:27:15;;;;;;;5.33;4.53;;;14.10;99.90;;;;;;4964178;29;20236;-79
2021/06/11 00:29:41;;;;;;;5.93;4.70;;;14.10;99.90;;;;;;4964284;29;20184;-79
2021/06/11 00:32:06;;;;;;;5.33;4.83;;;14.10;99.90;;;;;;4964172;29;20192;-79
2021/06/11 00:34:32;;;;;;;6.03;4.93;;;14.10;99.90;;;;;;4965202;29;20177;-79
2021/06/11 00:36:58;;;;;;;8.37;4.70;;;14.10;99.90;;;;;;4965156;29;20229;-79
2021/06/11 00:39:23;;;;;;;6.37;4.47;;;14.10;99.90;;;;;;4947828;29;20655;-79
2021/06/11 00:41:49;;;;;;;5.30;4.67;;;14.10;99.90;;;;;;4946577;29;20215;-79
2021/06/11 00:44:15;;;;;;;5.50;4.73;;;14.00;99.90;;;;;;4946853;29;20181;-79
2021/06/11 00:46:41;;;;;;;5.50;4.60;;;14.00;99.90;;;;;;4946763;29;20562;-79
2021/06/11 00:49:07;;;;;;;6.87;4.33;;;14.00;99.90;;;;;;4946641;29;20183;-79
2021/06/11 00:51:32;;;;;;;5.67;4.67;;;14.00;99.90;;;;;;4963302;29;20181;-79
2021/06/11 00:53:58;;;;;;;6.03;4.70;;;14.00;99.90;;;;;;4946038;29;20192;-79
2021/06/11 00:56:24;;;;;;;7.30;5.43;;;13.90;99.90;;;;;;4947321;29;20750;-79
2021/06/11 00:58:50;;;;;;;6.13;4.87;;;13.90;99.90;;;;;;4964311;29;20204;-79
2021/06/11 01:01:15;;;;;;;5.30;4.80;;;13.90;99.90;;;;;;4947099;29;20657;-79
2021/06/11 01:03:41;;;;;;;5.13;4.63;;;13.90;99.90;;;;;;4964001;29;20181;-79
2021/06/11 01:06:07;;;;;;;7.03;4.73;;;13.90;99.90;;;;;;4965014;29;20201;-80
2021/06/11 01:08:33;;;;;;;6.50;5.10;;;13.80;99.90;;;;;;4950945;29;20181;-79
2021/06/11 01:10:59;;;;;;;6.67;4.97;;;13.90;99.90;;;;;;4962033;28;20749;-79
2021/06/11 01:13:26;;;;;;;5.77;5.13;;;13.90;99.90;;;;;;4945105;29;20681;-79
2021/06/11 01:15:52;;;;;;;6.73;5.23;;;13.90;99.90;;;;;;4945118;29;20232;-79
2021/06/11 01:18:19;;;;;;;6.27;5.23;;;13.80;99.90;;;;;;4962507;29;20532;-79
2021/06/11 01:20:46;;;;;;;7.53;5.20;;;13.80;99.90;;;;;;4962379;29;20233;-79
2021/06/11 01:23:55;;;;;;;5.37;4.87;;;13.70;99.90;;;;;;4945017;29;20240;-79
2021/06/11 01:26:26;;;;;;;4.97;4.47;;;13.70;99.90;;;;;;4962535;29;20251;-79
2021/06/11 01:28:55;;;;;;;5.80;5.20;;;13.60;99.90;;;;;;4945416;29;20541;-79
2021/06/11 01:31:22;;;;;;;7.43;5.13;;;13.60;99.90;;;;;;4962184;29;20177;-79
2021/06/11 01:33:54;;;;;;;7.77;4.97;;;13.60;99.90;;;;;;4944706;29;20185;-79
2021/06/11 01:36:24;;;;;;;5.50;4.60;;;13.50;99.90;;;;;;4962016;29;20255;-79
2021/06/11 01:38:52;;;;;;;5.73;4.50;;;13.50;99.90;;;;;;4944549;29;20239;-79
2021/06/11 01:41:19;;;;;;;8.90;5.27;;;13.50;99.90;;;;;;4961557;29;20200;-79
2021/06/11 01:43:49;;;;;;;6.93;4.60;;;13.50;99.90;;;;;;4961708;29;20185;-79
2021/06/11 01:46:16;;;;;;;6.27;4.83;;;13.50;99.90;;;;;;4961907;29;20201;-78
2021/06/11 01:48:45;;;;;;;6.03;4.67;;;13.50;99.90;;;;;;4962520;29;20577;-79
2021/06/11 01:51:13;;;;;;;6.73;4.83;;;13.50;99.90;;;;;;4944566;29;20714;-79
2021/06/11 01:53:41;;;;;;;5.23;4.73;;;13.40;99.90;;;;;;4961225;29;20184;-79
2021/06/11 01:56:14;;;;;;;4.67;4.27;;;13.40;99.90;;;;;;4961458;29;20666;-79
2021/06/11 01:58:42;;;;;;;7.03;4.73;;;13.40;99.90;;;;;;4961695;29;20169;-78
2021/06/11 02:01:10;;;;;;;6.00;4.33;;;13.40;99.90;;;;;;4961535;29;20217;-79
2021/06/11 02:03:36;;;;;;;6.77;4.63;;;13.40;99.90;;;;;;4944310;29;20188;-79
2021/06/11 02:06:02;;;;;;;6.57;4.97;;;13.30;99.90;;;;;;4961542;29;20204;-79
2021/06/11 02:08:29;;;;;;;5.20;4.70;;;13.30;99.90;;;;;;4960763;29;20670;-79
2021/06/11 02:10:56;;;;;;;5.00;4.50;;;13.30;99.90;;;;;;4943762;29;20321;-79
2021/06/11 02:13:22;;;;;;;5.73;4.67;;;13.20;99.90;;;;;;4943534;29;20201;-79
2021/06/11 02:15:49;;;;;;;4.67;3.90;;;13.20;99.90;;;;;;4943708;29;20239;-79
2021/06/11 02:18:15;;;;;;;5.67;4.13;;;13.20;99.90;;;;;;4961071;29;20172;-79
2021/06/11 02:20:42;;;;;;;7.40;4.50;;;13.20;99.90;;;;;;4960859;29;20674;-79
2021/06/11 02:23:07;;;;;;;5.90;4.20;;;13.20;99.90;;;;;;4943126;29;20192;-79
2021/06/11 02:25:33;;;;;;;4.63;4.07;;;13.20;99.90;;;;;;4961309;29;20181;-79
2021/06/11 02:27:59;;;;;;;6.07;4.60;;;13.10;99.90;;;;;;4943691;29;20177;-79
2021/06/11 02:30:25;;;;;;;5.60;4.13;;;13.10;99.90;;;;;;4943319;29;20181;-79
2021/06/11 02:32:51;;;;;;;4.37;3.97;;;13.10;99.90;;;;;;4961381;29;20240;-79
2021/06/11 02:35:19;;;;;;;5.00;4.30;;;13.10;99.90;;;;;;4961291;29;20184;-79
2021/06/11 02:37:47;;;;;;;4.93;4.43;;;13.10;99.90;;;;;;4960973;29;20240;-79
2021/06/11 02:40:13;;;;;;;5.37;4.70;;;13.00;99.90;;;;;;4943795;29;20243;-79
2021/06/11 02:42:41;;;;;;;5.87;4.80;;;13.00;99.90;;;;;;4961426;29;20263;-79
2021/06/11 02:45:13;;;;;;;5.20;4.70;;;13.00;99.90;;;;;;4944496;29;20184;-79
2021/06/11 02:47:56;;;;;;;4.80;4.30;;;13.00;99.90;;;;;;4944368;29;20554;-79
2021/06/11 02:50:31;;;;;;;5.47;4.83;;;13.00;99.90;;;;;;4944161;29;20643;-79
2021/06/11 02:53:01;;;;;;;5.30;4.80;;;12.90;99.90;;;;;;4962364;29;20193;-79
2021/06/11 02:55:28;;;;;;;5.57;4.70;;;12.90;99.90;;;;;;4961299;29;20185;-79
2021/06/11 02:58:15;;;;;;;6.83;4.90;;;12.90;99.90;;;;;;4961765;29;20189;-79
2021/06/11 03:00:42;;;;;;;6.77;5.43;;;12.90;99.90;;;;;;4961594;29;20223;-79
2021/06/11 03:03:28;;;;;;;7.57;5.20;;;12.80;99.90;;;;;;4944714;29;20176;-79
2021/06/11 03:05:57;;;;;;;5.73;4.33;;;12.80;99.90;;;;;;4944798;29;20201;-79
2021/06/11 03:08:25;;;;;;;6.03;4.63;;;12.80;99.90;;;;;;4962993;29;20177;-79
2021/06/11 03:10:57;;;;;;;5.97;4.63;;;12.80;99.90;;;;;;4945260;29;20271;-79
2021/06/11 03:13:23;;;;;;;4.93;4.27;;;12.70;99.90;;;;;;4956331;29;20296;-78
2021/06/11 03:15:51;;;;;;;5.30;4.67;;;12.70;99.90;;;;;;4952519;29;20536;-79
2021/06/11 03:18:28;;;;;;;5.57;4.50;;;12.70;99.90;;;;;;4961124;29;20189;-79
2021/06/11 03:20:57;;;;;;;4.93;4.43;;;12.70;99.90;;;;;;4960650;29;20284;-79
2021/06/11 03:24:01;;;;;;;5.27;4.43;;;12.70;99.90;;;;;;4960925;29;20232;-79
2021/06/11 03:26:49;;;;;;;4.70;4.20;;;12.70;99.90;;;;;;4959783;29;20213;-79
2021/06/11 03:30:00;;;;;;;4.60;4.00;;;12.60;99.90;;;;;;4943375;29;20181;-79
2021/06/11 03:32:31;;;;;;;5.97;4.67;;;12.60;99.90;;;;;;4944858;29;20200;-79
2021/06/11 03:35:07;;;;;;;5.40;4.50;;;12.60;99.90;;;;;;4963093;28;20188;-79
2021/06/11 03:37:33;;;;;;;7.80;4.60;;;12.70;99.90;;;;;;4947786;29;20200;-79
2021/06/11 03:40:06;;;;;;;5.60;4.80;;;12.60;99.90;;;;;;4964472;29;20170;-79
2021/06/11 03:42:32;;;;;;;4.97;4.30;;;12.60;99.90;;;;;;4947291;29;20201;-79
2021/06/11 03:45:00;;;;;;;5.87;4.97;;;12.60;99.90;;;;;;4965006;29;20184;-79
2021/06/11 03:47:32;;;;;;;5.13;4.63;;;12.60;99.90;;;;;;4947570;29;20291;-79
2021/06/11 03:49:59;;;;;;;4.67;4.17;;;12.60;99.90;;;;;;4964767;29;20196;-79
2021/06/11 03:52:27;;;;;;;5.30;4.23;;;12.60;99.90;;;;;;4965196;29;20177;-79
2021/06/11 03:55:13;;;;;;;7.63;4.33;;;12.50;99.90;;;;;;4964917;29;20179;-79
2021/06/11 03:57:41;;;;;;;5.43;4.80;;;12.50;99.90;;;;;;4965112;29;20228;-79
2021/06/11 04:00:08;;;;;;;4.77;4.07;;;12.60;99.90;;;;;;4947964;29;20188;-79
2021/06/11 04:02:34;;;;;;;5.17;4.67;;;12.50;99.90;;;;;;4948359;29;20189;-79
2021/06/11 04:05:00;;;;;;;4.57;3.90;;;12.50;99.90;;;;;;4965182;29;20184;-79
2021/06/11 04:07:36;;;;;;;7.10;4.57;;;12.50;99.90;;;;;;4964834;29;20200;-79
2021/06/11 04:10:06;;;;;;;5.83;4.87;;;12.50;99.90;;;;;;4947829;29;20177;-78
2021/06/11 04:12:52;;;;;;;5.00;4.47;;;12.50;99.90;;;;;;4947291;29;20177;-79
2021/06/11 04:15:18;;;;;;;5.33;4.40;;;12.50;99.90;;;;;;4965137;29;20156;-79
2021/06/11 04:17:49;;;;;;;4.80;4.23;;;12.50;99.90;;;;;;4965487;29;20189;-79
2021/06/11 04:20:25;;;;;;;5.17;4.50;;;12.50;99.90;;;;;;4962700;29;20205;-78
2021/06/11 04:22:53;;;;;;;5.23;4.53;;;12.50;99.90;;;;;;4962703;29;20228;-78
2021/06/11 04:25:20;;;;;;;10.47;4.33;;;12.50;99.90;;;;;;4962273;29;20180;-78
2021/06/11 04:27:50;;;;;;;5.90;4.83;;;12.50;99.90;;;;;;4962147;29;20272;-78
2021/06/11 04:30:17;;;;;;;4.90;4.30;;;12.50;99.90;;;;;;4945121;29;20181;-78
2021/06/11 04:32:42;;;;;;;5.27;4.57;;;12.50;99.90;;;;;;4960685;29;20603;-78
2021/06/11 04:35:09;;;;;;;4.97;4.40;;;12.50;99.90;;;;;;4960201;29;20268;-78
2021/06/11 04:37:36;;;;;;;5.57;4.53;;;12.60;99.90;;;;;;4945146;29;20571;-79
2021/06/11 04:40:04;;;;;;;5.23;4.03;;;12.60;99.90;;;;;;4945480;29;20825;-78
2021/06/11 04:42:30;;;;;;;6.50;4.60;;;12.60;99.90;;;;;;4945806;29;20184;-79
2021/06/11 04:44:58;;;;;;;4.27;3.87;;;12.70;99.90;;;;;;4962855;29;20185;-79
2021/06/11 04:47:23;;;;;;;5.83;4.30;;;12.80;99.90;;;;;;4944795;29;20227;-79
2021/06/11 04:49:49;;;;;;;6.43;4.67;;;12.80;99.90;;;;;;4964061;29;20180;-79
2021/06/11 04:52:15;;;;;;;5.17;3.53;;;12.80;99.90;;;;;;4946800;29;20275;-79
2021/06/11 04:54:40;;;;;;;5.33;4.10;;;12.90;99.90;;;;;;4962825;29;20276;-79
2021/06/11 04:57:06;;;;;;;6.27;4.13;;;13.00;99.90;;;;;;4963120;29;20197;-78
2021/06/11 04:59:32;;;;;;;5.90;4.50;;;13.00;99.90;;;;;;4962618;29;20320;-79
2021/06/11 05:01:58;;;;;;;4.30;3.90;;;13.00;99.90;;;;;;4944543;29;20264;-78
2021/06/11 05:04:24;;;;;;;3.93;3.53;;;13.00;99.90;;;;;;4962393;29;20235;-78
2021/06/11 05:06:50;;;;;;;7.63;3.70;;;13.10;99.90;;;;;;4962028;29;20659;-78
2021/06/11 05:09:16;;;;;;;6.10;3.90;;;13.20;99.90;;;;;;4962221;29;20223;-78
2021/06/11 05:11:42;;;;;;;4.77;3.90;;;13.20;99.90;;;;;;4943621;29;20185;-78
2021/06/11 05:14:07;;;;;;;7.03;3.73;;;13.20;99.90;;;;;;4961156;29;20573;-78
2021/06/11 05:16:33;;;;;;;4.43;3.97;;;13.30;99.90;;;;;;4944562;29;20208;-78
2021/06/11 05:18:59;;;;;;;4.27;3.87;;;13.40;99.90;;;;;;4945017;29;20185;-80
2021/06/11 05:21:24;;;;;;;5.03;3.90;;;13.50;99.90;;;;;;4962256;29;20228;-78
2021/06/11 05:23:50;;;;;;;3.90;3.50;;;13.70;99.90;;;;;;4962723;29;20202;-79
2021/06/11 05:26:16;;;;;;;5.40;3.50;;;13.80;99.90;;;;;;4945716;29;20193;-79
2021/06/11 05:28:42;;;;;;;6.23;3.97;;;13.90;99.90;;;;;;4945530;29;20588;-78
2021/06/11 05:31:07;;;;;;;4.23;3.53;;;14.00;99.90;;;;;;4963461;29;20177;-79
2021/06/11 05:33:33;;;;;;;4.50;3.90;;;14.10;99.90;;;;;;4944215;29;20191;-78
2021/06/11 05:35:59;;;;;;;4.33;3.47;;;14.10;99.90;;;;;;4962050;29;20208;-78
2021/06/11 05:38:24;;;;;;;4.57;3.50;;;14.20;99.90;;;;;;4944988;29;20702;-79
2021/06/11 05:40:51;;;;;;;5.80;3.57;;;14.30;99.90;;;;;;4946446;29;20200;-79
2021/06/11 05:43:16;;;;;;;5.03;3.30;;;14.30;99.90;;;;;;4962657;29;20207;-79
2021/06/11 05:45:42;;;;;;;4.10;3.70;;;14.40;99.90;;;;;;4963328;29;20195;-79
2021/06/11 05:48:08;;;;;;;4.73;3.67;;;14.50;99.90;;;;;;4962311;29;20173;-78
2021/06/11 05:50:34;;;;;;;4.93;3.40;;;14.60;99.90;;;;;;4962491;29;20181;-78
2021/06/11 05:53:00;;;;;;;4.97;4.07;;;14.70;99.90;;;;;;4961927;29;20224;-79
2021/06/11 05:55:26;;;;;;;4.27;3.87;;;14.80;99.90;;;;;;4961899;29;20177;-79
2021/06/11 05:57:52;;;;;;;4.67;3.47;;;14.90;99.90;;;;;;4943747;29;20180;-78
2021/06/11 06:00:19;;;;;;;3.80;3.40;;;14.90;99.90;;;;;;4944634;29;20184;-78
2021/06/11 06:02:44;;;;;;;4.23;3.60;;;15.00;99.90;;;;;;4962567;29;20185;-79
2021/06/11 06:05:11;;;;;;;4.20;3.40;;;15.10;99.90;;;;;;4963923;29;20222;-79
2021/06/11 06:07:37;;;;;;;4.23;3.83;;;15.10;99.90;;;;;;4944153;29;20265;-79
2021/06/11 06:10:04;;;;;;;4.83;3.63;;;15.10;99.90;;;;;;4961395;29;20189;-78
2021/06/11 06:12:30;;;;;;;4.00;3.37;;;15.10;99.90;;;;;;4962878;29;20177;-79
2021/06/11 06:14:57;;;;;;;5.90;3.57;;;15.10;99.90;;;;;;4965145;29;20176;-79
2021/06/11 06:17:24;;;;;;;5.17;3.90;;;15.10;99.90;;;;;;4945908;29;20283;-78
2021/06/11 06:19:50;;;;;;;5.57;3.50;;;15.20;99.90;;;;;;4962116;29;20276;-79
2021/06/11 06:22:15;;;;;;;5.70;4.20;;;15.20;99.90;;;;;;4961141;29;20314;-78
2021/06/11 06:24:41;;;;;;;3.80;3.33;;;15.30;99.90;;;;;;4962439;29;20178;-78
2021/06/11 06:27:07;;;;;;;5.57;3.50;;;15.40;99.90;;;;;;4944786;29;20200;-79
2021/06/11 06:29:32;;;;;;;5.03;3.63;;;15.40;99.90;;;;;;4944927;29;20181;-79
2021/06/11 06:31:58;;;;;;;8.37;3.83;;;15.50;99.90;;;;;;4961606;29;20192;-79
2021/06/11 06:34:25;;;;;;;7.73;3.63;;;15.50;99.90;;;;;;4944818;29;20196;-79
2021/06/11 06:36:52;;;;;;;5.20;3.40;;;15.60;99.90;;;;;;4962246;29;20252;-79
2021/06/11 06:39:18;;;;;;;4.20;3.20;;;15.60;99.90;;;;;;4944458;29;20185;-79
2021/06/11 06:41:44;;;;;;;3.53;3.23;;;15.70;99.90;;;;;;4944284;29;20223;-79
2021/06/11 06:44:11;;;;;;;3.73;3.30;;;15.70;99.90;;;;;;4962361;29;20228;-79
2021/06/11 06:46:38;;;;;;;3.53;2.97;;;15.70;99.90;;;;;;4961827;29;20192;-79
2021/06/11 06:49:03;;;;;;;5.77;3.90;;;15.70;99.90;;;;;;4962127;29;20584;-79
2021/06/11 06:51:32;;;;;;;3.80;3.40;;;15.80;99.90;;;;;;4962435;29;20188;-79
2021/06/11 06:53:59;;;;;;;4.50;3.27;;;15.80;99.90;;;;;;4962487;29;20593;-79
2021/06/11 06:56:25;;;;;;;4.00;3.17;;;16.00;99.90;;;;;;4945459;29;20201;-79
2021/06/11 06:58:52;;;;;;;4.20;3.40;;;16.20;99.90;;;;;;4963361;29;20217;-79
2021/06/11 07:01:18;;;;;;;3.77;3.40;;;16.50;99.90;;;;;;4963143;29;20197;-79
2021/06/11 07:03:44;;;;;;;3.87;3.40;;;16.60;99.90;;;;;;4963631;29;20176;-79
2021/06/11 07:06:09;;;;;;;4.67;2.97;;;16.70;99.90;;;;;;4946189;29;20285;-79
2021/06/11 07:08:35;;;;;;;4.67;3.53;;;16.80;99.90;;;;;;4963617;28;20178;-79
2021/06/11 07:11:01;;;;;;;6.00;3.87;;;17.00;99.90;;;;;;4967149;29;20197;-79
2021/06/11 07:13:31;;;;;;;5.47;3.57;;;17.10;99.90;;;;;;4965837;29;20268;-79
2021/06/11 07:15:57;;;;;;;4.53;4.10;;;17.20;99.90;;;;;;4963155;29;20192;-78
2021/06/11 07:18:23;;;;;;;4.53;3.83;;;17.30;99.90;;;;;;4945679;29;20277;-79
2021/06/11 07:20:49;;;;;;;6.77;4.30;;;17.40;99.90;;;;;;4945431;29;20234;-79
2021/06/11 07:23:15;;;;;;;5.27;4.30;;;17.50;99.90;;;;;;4946033;29;20225;-79
2021/06/11 07:25:40;;;;;;;8.17;4.30;;;17.70;99.90;;;;;;4963046;29;20191;-78
2021/06/11 07:28:06;;;;;;;5.07;4.37;;;17.80;99.90;;;;;;4962591;29;20180;-78
2021/06/11 07:30:32;;;;;;;5.27;4.10;;;18.00;99.90;;;;;;4963072;29;20205;-78
2021/06/11 07:32:58;;;;;;;5.77;5.17;;;18.20;99.90;;;;;;4963040;29;20178;-79
2021/06/11 07:35:24;;;;;;;6.70;6.00;;;18.30;99.90;;;;;;4962270;29;20186;-79
2021/06/11 07:37:49;;;;;;;6.20;5.30;;;18.40;99.90;;;;;;4944959;29;20179;-78
2021/06/11 07:40:16;;;;;;;6.37;5.47;;;18.50;99.90;;;;;;4944925;29;20219;-79
2021/06/11 07:42:41;;;;;;;5.97;5.37;;;18.60;99.90;;;;;;4945115;29;20179;-78
2021/06/11 07:45:08;;;;;;;7.37;5.23;;;18.70;99.90;;;;;;4944843;29;20173;-78
2021/06/11 07:47:34;;;;;;;5.87;4.97;;;18.90;99.90;;;;;;4945298;29;20194;-79
2021/06/11 07:50:00;;;;;;;5.03;4.53;;;18.90;99.90;;;;;;4962706;29;20180;-78
2021/06/11 07:52:26;;;;;;;6.90;4.80;;;19.10;99.90;;;;;;4962800;29;20180;-79
2021/06/11 07:54:52;;;;;;;5.60;5.10;;;19.20;99.90;;;;;;4944656;29;20211;-78
2021/06/11 07:57:17;;;;;;;5.73;4.80;;;19.40;99.90;;;;;;4962171;29;20644;-78
2021/06/11 07:59:43;;;;;;;5.20;4.70;;;19.50;99.90;;;;;;4961575;29;20182;-79
2021/06/11 08:02:10;;;;;;;4.70;4.30;;;19.60;99.90;;;;;;4962154;29;20211;-79
2021/06/11 08:04:36;;;;;;;6.23;4.87;;;19.80;99.90;;;;;;4961737;29;20203;-79
2021/06/11 08:07:02;;;;;;;9.17;4.67;;;19.90;99.90;;;;;;4961585;29;20197;-79
2021/06/11 08:09:29;;;;;;;4.90;4.40;;;20.00;99.90;;;;;;4962365;29;20248;-79
2021/06/11 08:11:55;;;;;;;4.43;3.93;;;20.20;99.90;;;;;;4944985;29;20256;-79
2021/06/11 08:14:22;;;;;;;5.37;4.50;;;20.30;99.90;;;;;;4945735;29;20224;-78
2021/06/11 08:16:47;;;;;;;5.93;4.50;;;20.60;99.90;;;;;;4945120;29;20212;-79
2021/06/11 08:19:13;;;;;;;6.10;4.10;;;20.70;99.90;;;;;;4945599;29;20185;-78
2021/06/11 08:21:39;;;;;;;4.53;4.13;;;20.80;99.90;;;;;;4960430;28;20201;-79
2021/06/11 08:24:04;;;;;;;7.83;5.10;;;20.90;99.90;;;;;;4943376;29;20266;-79
2021/06/11 08:26:30;;;;;;;5.83;5.17;;;21.10;99.90;;;;;;4945671;29;20247;-78
2021/06/11 08:28:56;;;;;;;6.63;4.63;;;20.80;99.90;;;;;;4945821;29;20312;-78
2021/06/11 08:31:21;;;;;;;4.70;4.30;;;20.90;99.90;;;;;;4946306;29;20268;-79
2021/06/11 08:33:47;;;;;;;5.17;4.50;;;21.00;99.90;;;;;;4944906;29;20185;-78
2021/06/11 08:36:14;;;;;;;5.17;4.67;;;21.20;99.90;;;;;;4964469;29;20188;-79
2021/06/11 08:38:40;;;;;;;6.97;4.00;;;21.40;99.90;;;;;;4963371;29;20196;-79
2021/06/11 08:41:13;;;;;;;7.40;4.00;;;21.80;99.90;;;;;;4963441;29;20563;-79
2021/06/11 08:43:39;;;;;;;5.10;4.10;;;22.30;99.90;;;;;;4946570;29;20169;-79
2021/06/11 08:46:06;;;;;;;6.13;4.40;;;22.80;99.90;;;;;;4946525;29;20200;-79
2021/06/11 08:48:32;;;;;;;4.80;4.17;;;23.30;99.90;;;;;;4963261;29;20597;-79
2021/06/11 08:50:58;;;;;;;5.33;4.13;;;23.80;99.90;;;;;;4963273;29;20218;-78
2021/06/11 08:53:25;;;;;;;4.40;4.03;;;24.20;99.90;;;;;;4963092;29;20188;-79
2021/06/11 08:55:52;;;;;;;5.83;4.10;;;24.30;99.90;;;;;;4946301;29;20215;-79
2021/06/11 08:58:17;;;;;;;4.90;4.40;;;24.50;99.90;;;;;;4945899;29;20187;-79
2021/06/11 09:00:43;;;;;;;7.40;4.37;;;24.60;99.90;;;;;;4963105;29;20262;-79
2021/06/11 09:03:24;;;;;;;6.23;4.23;;;24.60;99.90;;;;;;4963966;29;20183;-79
2021/06/11 09:06:01;;;;;;;4.97;4.07;;;24.60;99.90;;;;;;4946557;29;20232;-79
2021/06/11 09:08:28;;;;;;;6.40;4.73;;;24.70;99.90;;;;;;4948280;29;20227;-79
2021/06/11 09:11:20;;;;;;;4.70;3.93;;;24.70;99.90;;;;;;4947843;29;20195;-79
2021/06/11 09:13:51;;;;;;;5.07;4.50;;;24.50;99.90;;;;;;4945748;29;20204;-79
2021/06/11 09:16:21;;;;;;;6.30;4.40;;;24.30;99.90;;;;;;4962735;29;20614;-78
2021/06/11 09:19:05;;;;;;;4.50;4.10;;;24.40;99.90;;;;;;4944728;29;20184;-79
2021/06/11 09:21:38;;;;;;;4.90;3.90;;;24.30;99.90;;;;;;4962189;29;20205;-79
2021/06/11 09:24:25;;;;;;;5.67;3.60;;;24.40;99.90;;;;;;4961691;29;20190;-79
2021/06/11 09:27:13;;;;;;;3.77;3.47;;;24.60;99.90;;;;;;4961726;29;20199;-79
2021/06/11 09:29:44;;;;;;;5.17;3.53;;;25.00;99.90;;;;;;4942493;29;20259;-77
2021/06/11 09:32:13;;;;;;;3.83;3.53;;;25.30;99.90;;;;;;4956713;28;20164;-77
2021/06/11 09:34:39;;;;;;;5.13;3.63;;;25.50;99.90;;;;;;4939621;29;20198;-77
2021/06/11 09:37:09;;;;;;;3.90;3.60;;;25.80;99.90;;;;;;4956738;29;20262;-77
2021/06/11 09:39:40;;;;;;;3.83;3.37;;;25.90;99.90;;;;;;4939810;29;20192;-77
2021/06/11 09:42:06;;;;;;;4.40;4.00;;;25.90;99.90;;;;;;4957767;29;20215;-77
2021/06/11 09:44:32;;;;;;;3.97;3.40;;;25.90;99.90;;;;;;4956935;29;20181;-77
2021/06/11 09:46:58;;;;;;;4.90;3.87;;;25.90;99.90;;;;;;4939313;29;20204;-77
2021/06/11 09:49:26;;;;;;;3.47;3.17;;;25.90;99.90;;;;;;4939465;29;20258;-77
2021/06/11 09:52:10;;;;;;;3.90;3.50;;;25.90;99.90;;;;;;4956479;29;20211;-77
2021/06/11 09:54:36;;;;;;;4.10;3.70;;;26.00;99.90;;;;;;4957244;29;20626;-77
2021/06/11 09:57:22;;;;;;;3.70;3.40;;;26.00;99.90;;;;;;4956528;29;20700;-77
2021/06/11 09:59:47;;;;;;;5.23;3.30;;;25.90;99.90;;;;;;4939181;29;20194;-77
2021/06/11 10:02:19;;;;;;;3.60;3.30;;;26.20;99.90;;;;;;4956241;29;20256;-77
2021/06/11 10:04:45;;;;;;;5.00;3.00;;;26.40;99.90;;;;;;4939930;29;20256;-77
2021/06/11 10:07:12;;;;;;;4.30;2.73;;;26.60;99.90;;;;;;4958087;29;20221;-79
2021/06/11 10:09:39;;;;;;;3.10;2.90;;;27.00;99.30;;;;;;4957656;29;20608;-77
2021/06/11 10:12:06;;;;;;;3.23;3.03;;;27.20;99.90;;;;;;4956313;29;20213;-77
2021/06/11 10:14:32;;;;;;;2.93;2.70;;;27.00;97.70;;;;;;4957357;29;20562;-78
2021/06/11 10:16:58;;;;;;;3.17;2.93;;;27.00;98.60;;;;;;4939193;29;20213;-76
2021/06/11 10:19:28;;;;;;;3.30;3.00;;;26.90;95.50;;;;;;4955811;29;20189;-76
2021/06/11 10:21:54;;;;;;;3.33;3.03;;;26.80;94.90;;;;;;4955722;29;20256;-75
2021/06/11 10:24:21;;;;;;;3.03;2.83;;;26.50;95.80;;;;;;4955919;29;20209;-76
2021/06/11 10:26:48;;;;;;;4.97;2.90;;;26.70;96.50;;;;;;4955879;29;20535;-76
2021/06/11 10:29:15;;;;;;;4.27;2.73;;;26.80;95.10;;;;;;4956119;29;20184;-76
2021/06/11 10:31:42;;;;;;;3.53;2.90;;;26.20;93.10;;;;;;4955970;29;20177;-76
2021/06/11 10:34:07;;;;;;;2.53;2.33;;;26.20;96.70;;;;;;4938452;29;20276;-75
2021/06/11 10:36:38;;;;;;;3.07;2.47;;;26.50;95.70;;;;;;4956461;29;20240;-77
2021/06/11 10:39:10;;;;;;;3.67;2.33;;;26.90;97.50;;;;;;4955642;29;20256;-76
2021/06/11 10:41:59;;;;;;;2.53;2.33;;;27.20;91.70;;;;;;4955382;29;20209;-77
2021/06/11 10:44:33;;;;;;;3.20;2.90;;;27.60;92.30;;;;;;4955101;28;20606;-75
2021/06/11 10:47:17;;;;;;;3.50;3.20;;;27.70;94.90;;;;;;4955378;29;20291;-75
2021/06/11 10:49:55;;;;;;;3.27;2.97;;;28.00;95.70;;;;;;4955727;29;20530;-76
2021/06/11 10:52:49;;;;;;;2.73;2.53;;;28.00;94.20;;;;;;4955371;29;20234;-76
2021/06/11 10:55:15;;;;;;;4.43;2.63;;;28.10;92.80;;;;;;4955684;29;20607;-76
2021/06/11 10:57:42;;;;;;;4.33;3.07;;;28.30;90.00;;;;;;4955538;29;20280;-75
2021/06/11 11:00:22;;;;;;;3.23;2.87;;;28.40;94.80;;;;;;4955230;29;20258;-75
2021/06/11 11:02:52;;;;;;;2.70;2.33;;;28.50;90.00;;;;;;4955402;29;20592;-75
2021/06/11 11:05:29;;;;;;;3.00;2.40;;;28.40;88.20;;;;;;4955977;29;20181;-75
2021/06/11 11:07:56;;;;;;;3.90;2.77;;;28.70;85.70;;;;;;4955388;29;20196;-75
2021/06/11 11:10:36;;;;;;;4.47;2.70;;;28.90;89.50;;;;;;4955201;29;20180;-76
2021/06/11 11:13:03;;;;;;;3.93;2.63;;;28.90;82.40;;;;;;4955369;29;20209;-75
2021/06/11 11:15:48;;;;;;;2.70;2.50;;;29.10;90.90;;;;;;4938494;29;20178;-76
2021/06/11 11:18:24;;;;;;;3.23;2.60;;;29.50;89.80;;;;;;4955658;29;20217;-75
2021/06/11 11:20:51;;;;;;;2.83;2.53;;;29.40;87.10;;;;;;4937955;29;20267;-76
2021/06/11 11:23:19;;;;;;;3.10;2.80;;;29.50;81.20;;;;;;4955217;29;20230;-76
2021/06/11 11:25:46;;;;;;;2.90;2.70;;;29.60;82.30;;;;;;4955239;29;20249;-76
2021/06/11 11:28:13;;;;;;;2.83;2.63;;;29.50;86.40;;;;;;4955434;29;20179;-76
2021/06/11 11:30:40;;;;;;;3.10;2.90;;;29.60;77.60;;;;;;4955410;29;20214;-76
2021/06/11 11:33:08;;;;;;;3.00;2.70;;;29.80;78.70;;;;;;4956586;29;20663;-78
2021/06/11 11:35:38;;;;;;;2.93;2.73;;;29.90;81.10;;;;;;4938235;29;20193;-77
2021/06/11 11:38:10;;;;;;;6.10;2.57;;;30.30;74.50;;;;;;4955889;29;20166;-77
2021/06/11 11:40:37;;;;;;;2.37;2.17;;;30.50;71.30;;;;;;4955457;29;20194;-77
2021/06/11 11:43:04;;;;;;;2.87;2.63;;;30.90;85.20;;;;;;4938592;29;20708;-77
2021/06/11 11:45:31;;;;;;;2.73;2.53;;;31.30;75.80;;;;;;4955390;29;20531;-76
2021/06/11 11:47:59;;;;;;;4.13;2.37;;;31.80;72.00;;;;;;4957279;29;20651;-77
2021/06/11 11:50:28;;;;;;;2.70;2.50;;;31.70;62.50;;;;;;4956156;29;20180;-77
2021/06/11 11:52:56;;;;;;;2.60;2.40;;;31.60;76.80;;;;;;4954866;29;20180;-77
2021/06/11 11:55:23;;;;;;;3.50;2.53;;;31.60;75.50;;;;;;4955829;28;20639;-77
2021/06/11 11:57:49;;;;;;;2.50;2.30;;;32.10;68.30;;;;;;4958870;29;20177;-77
2021/06/11 12:00:15;;;;;;;2.80;2.47;;;32.50;71.00;;;;;;4941280;29;20197;-77
2021/06/11 12:02:42;;;;;;;4.00;3.10;;;32.50;68.90;;;;;;4958364;29;20180;-76
2021/06/11 12:05:09;;;;;;;5.87;2.47;;;32.40;67.00;;;;;;4967851;29;20173;-80
2021/06/11 12:07:34;;;;;;;3.13;2.23;;;32.30;71.60;;;;;;4950846;29;20212;-79
2021/06/11 12:10:00;;;;;;;4.43;2.60;;;32.50;62.20;;;;;;4965921;29;20169;-78
2021/06/11 12:12:26;;;;;;;3.10;2.80;;;32.60;66.10;;;;;;4968336;29;20183;-80
2021/06/11 12:14:54;;;;;;;2.50;2.30;;;32.70;61.60;;;;;;4952770;29;20209;-80
2021/06/11 12:17:20;;;;;;;3.50;2.63;;;31.90;62.50;;;;;;4970337;29;20189;-81
2021/06/11 12:19:45;;;;;;;2.70;2.50;;;31.60;71.70;;;;;;4969088;29;20177;-79
2021/06/11 12:22:13;;;;;;;2.83;2.37;;;32.20;69.50;;;;;;4967009;29;20204;-79
2021/06/11 12:24:39;;;;;;;3.60;2.43;;;32.60;61.40;;;;;;4968291;29;20198;-79
2021/06/11 12:27:05;;;;;;;2.90;2.50;;;33.00;60.30;;;;;;4950349;29;20202;-78
2021/06/11 12:29:31;;;;;;;2.97;2.67;;;33.00;57.50;;;;;;4967602;29;20183;-78
2021/06/11 12:31:56;;;;;;;2.53;2.33;;;33.10;62.50;;;;;;4969450;29;20185;-78
2021/06/11 12:34:22;;;;;;;3.27;2.50;;;33.20;61.80;;;;;;4966028;29;20546;-79
2021/06/11 12:36:48;;;;;;;4.23;2.67;;;33.30;67.10;;;;;;4966034;29;20193;-80
2021/06/11 12:39:14;;;;;;;4.17;2.63;;;33.10;60.40;;;;;;4945184;29;20189;-79
2021/06/11 12:41:40;;;;;;;3.20;2.53;;;32.80;59.10;;;;;;4944101;29;20208;-79
2021/06/11 12:44:19;;;;;;;5.10;3.07;;;32.40;57.90;;;;;;4961404;29;20261;-79
2021/06/11 12:46:48;;;;;;;2.80;2.60;;;32.10;62.40;;;;;;4944418;29;20224;-79
2021/06/11 12:49:14;;;;;;;5.00;2.50;;;32.40;66.90;;;;;;4961373;29;20185;-80
2021/06/11 12:51:42;;;;;;;3.13;2.20;;;32.40;62.30;;;;;;4944161;29;20181;-81
2021/06/11 12:54:08;;;;;;;5.10;2.37;;;32.40;58.70;;;;;;4944762;29;20606;-80